METAR Data
IDs: Format: Raw Decoded Include TAF

Data at: 2201 UTC 24 Mar 2019

KFWS 242152Z 18012KT 10SM SCT050 BKN065 26/17 A2996
KFWS 242055Z 17011G17KT 10SM BKN060 BKN080 27/16 A2998
KFWS 241955Z 17010G16KT 10SM BKN046 BKN090 27/17 A2999
KFWS 241855Z 18011G18KT 10SM BKN044 27/17 A3002
KFWS 241755Z 21011G17KT 10SM BKN036 25/17 A3004
KFWS 241650Z 20009G18KT 10SM BKN023 23/17 A3006
KFWS 241547Z 19014G22KT 10SM BKN019 22/17 A3007
KFWS 241515Z 18015G24KT 7SM SCT011 20/17 A3007
KFWS 241455Z 18011G18KT 7SM BKN009 19/17 A3007
KFWS 241345Z 17009KT 7SM OVC007 17/16 A3006
KFWS 241245Z 17008KT 7SM BKN007 16/15 A3005
KFWS 241145Z 16007KT 10SM CLR 16/15 A3003
KFWS 241135Z AUTO 18007KT 10SM CLR 16/15 A3003 RMK AO2 T01620150
KFWS 241115Z AUTO 18006KT 10SM CLR 16/15 A3003 RMK AO2 T01630150
KFWS 241055Z AUTO 18005KT 10SM CLR 17/15 A3003 RMK AO2 T01650150
KFWS 241035Z AUTO 19006KT 10SM CLR 17/15 A3003 RMK AO2 T01660148
KFWS 241015Z AUTO 19007KT 10SM CLR 17/15 A3002 RMK AO2 T01700150
KFWS 240955Z AUTO 18008KT 10SM CLR 17/15 A3002 RMK AO2 T01700150
KFWS 240935Z AUTO 18008KT 10SM CLR 17/15 A3003 RMK AO2 T01700147
KFWS 240915Z AUTO 18008KT 10SM CLR 17/15 A3003 RMK AO2 T01710146
KFWS 240855Z AUTO 18008KT 10SM SCT033 18/15 A3003 RMK AO2 T01750147
KFWS 240835Z AUTO 18007KT 10SM CLR 18/15 A3004 RMK AO2 T01750146
KFWS 240815Z AUTO 18010G15KT 10SM CLR 18/15 A3004 RMK AO2 T01790149
KFWS 240755Z AUTO 19009G17KT 10SM CLR 18/15 A3004 RMK AO2 T01790147
KFWS 240735Z AUTO 18010G15KT 10SM CLR 18/15 A3004 RMK AO2 T01810148
KFWS 240715Z AUTO 18011KT 10SM CLR 18/15 A3004 RMK AO2 T01830148
KFWS 240655Z AUTO 19013G16KT 10SM BKN035 19/15 A3004 RMK AO2 T01850149
KFWS 240635Z AUTO 18008G14KT 10SM OVC034 19/15 A3004 RMK AO2 T01890152
KFWS 240615Z AUTO 18010G16KT 10SM OVC035 19/15 A3004 RMK AO2 LTG DSNT N T01880152
KFWS 240555Z AUTO 18009KT 10SM BKN035 19/15 A3004 RMK AO2 T01850150 10190 20181 402100152
KFWS 240535Z AUTO 17009KT 10SM BKN035 18/15 A3004 RMK AO2 T01820149
KFWS 240515Z AUTO 18009G14KT 10SM BKN035 18/15 A3004 RMK AO2 T01820149
KFWS 240455Z AUTO 17010G17KT 10SM BKN031 18/15 A3004 RMK AO2 T01820148
KFWS 240435Z AUTO 17011KT 10SM BKN031 18/15 A3004 RMK AO2 T01820148
KFWS 240415Z AUTO 17010G17KT 10SM CLR 18/15 A3003 RMK AO2 T01840148
KFWS 240355Z AUTO 17011G16KT 10SM CLR 19/15 A3003 RMK AO2 T01850149
KFWS 240335Z AUTO 17012G16KT 10SM CLR 19/15 A3002 RMK AO2 T01850150
KFWS 240315Z AUTO 16011G17KT 10SM CLR 19/15 A3001 RMK AO2 T01860151
KFWS 240255Z AUTO 17011KT 10SM CLR 19/15 A3000 RMK AO2 T01850150
KFWS 240235Z AUTO 17011G16KT 10SM CLR 19/15 A3000 RMK AO2 T01850151
KFWS 240215Z AUTO 17011G16KT 10SM CLR 19/15 A2999 RMK AO2 T01880154
KFWS 240155Z AUTO 16013G17KT 10SM CLR 18/15 A2999 RMK AO2 T01840153
KFWS 240135Z AUTO 17010KT 10SM CLR 18/15 A2999 RMK AO2 T01830154
KFWS 240115Z AUTO 17010KT 10SM CLR 19/16 A2999 RMK AO2 T01850155
KFWS 240055Z AUTO 17012G17KT 10SM CLR 19/16 A2999 RMK AO2 T01870157
KFWS 232348Z 16013G18KT 10SM SCT031 SCT042 19/17 A2999
KFWS 232252Z 19009KT 7SM -RA OVC029 19/16 A3000
KFWS 232147Z 17012G22KT 10SM BKN025 OVC035 21/15 A3000
KFWS 232055Z 18010G21KT 10SM BKN025 OVC034 21/16 A3001
KFWS 231950Z 17017G21KT 10SM BKN023 OVC050 21/16 A3002
KFWS 231855Z 17012G18KT 10SM OVC019 20/15 A3005
KFWS 231746Z 17008KT 10SM BKN019 OVC027 18/14 A3009
KFWS 231653Z 16008KT 10SM BKN019 OVC029 17/14 A3010
KFWS 231552Z 14009G16KT 10SM BKN019 OVC034 17/13 A3010
KFWS 231447Z 16011G19KT 10SM BKN044 BKN085 17/13 A3008
KFWS 231346Z 16010KT 10SM BKN050 OVC080 16/11 A3008
KFWS 231246Z 16010G16KT 10SM BKN041 BKN080 16/11 A3007
KFWS 231145Z 17007KT 10SM OVC044 16/08 A3005
KFWS 231135Z AUTO 18009KT 10SM OVC042 16/09 A3004 RMK AO2 T01600086
KFWS 231115Z AUTO 17008KT 10SM VCTS BKN045 BKN075 16/09 A3004 RMK AO2 LTG DSNT SE T01550086
KFWS 231055Z AUTO 17007KT 10SM SCT075 16/08 A3003 RMK AO2 T01550082
KFWS 231035Z AUTO 16007KT 10SM SCT075 16/08 A3003 RMK AO2 T01550081
KFWS 231015Z AUTO 16007KT 10SM OVC075 16/09 A3003 RMK AO2 T01600085